Time;durP1;ratioP1;P1;durP2;ratioP2;P2;SDS_P1;SDS_P2;PMS_P1;PMS_P2;Temp;Humidity;BMP_temperature;BMP_pressure;BME280_temperature;BME280_humidity;BME280_pressure;Samples;Min_cycle;Max_cycle;Signal;HPM_P1;HPM_P2
2022/09/24 00:01:21;;;;;;;7.43;1.40;;;13.50;99.90;;;;;;5071555;28;20195;-59
2022/09/24 00:03:59;;;;;;;5.63;1.15;;;13.40;99.90;;;;;;5071800;28;20207;-59
2022/09/24 00:06:26;;;;;;;3.78;0.98;;;13.40;99.90;;;;;;5071371;28;20223;-59
2022/09/24 00:08:56;;;;;;;2.97;0.88;;;13.40;99.90;;;;;;5071572;28;20184;-59
2022/09/24 00:11:23;;;;;;;5.53;1.30;;;13.40;99.90;;;;;;5070459;28;20208;-59
2022/09/24 00:13:50;;;;;;;6.32;1.00;;;13.30;99.90;;;;;;5070912;28;20184;-59
2022/09/24 00:16:18;;;;;;;4.53;0.90;;;13.30;99.90;;;;;;5049122;28;20176;-59
2022/09/24 00:18:44;;;;;;;2.65;0.80;;;13.30;99.90;;;;;;5071553;28;20627;-59
2022/09/24 00:21:19;;;;;;;4.88;1.08;;;13.30;99.90;;;;;;5071419;28;20226;-59
2022/09/24 00:23:49;;;;;;;4.20;1.00;;;13.20;99.90;;;;;;5071256;28;20176;-59
2022/09/24 00:28:59;;;;;;;3.65;1.10;;;13.20;99.90;;;;;;5071471;28;20176;-60
2022/09/24 00:31:25;;;;;;;2.90;0.93;;;13.20;99.90;;;;;;5071070;28;20212;-60
2022/09/24 00:33:52;;;;;;;8.55;1.30;;;13.10;99.90;;;;;;5071169;28;20215;-59
2022/09/24 00:36:20;;;;;;;4.68;1.45;;;13.10;99.90;;;;;;5070942;28;20210;-59
2022/09/24 00:38:50;;;;;;;6.37;1.10;;;13.10;99.90;;;;;;5070863;28;20177;-60
2022/09/24 00:41:21;;;;;;;5.47;0.95;;;13.10;99.90;;;;;;5071050;28;20768;-59
2022/09/24 00:43:48;;;;;;;6.90;1.50;;;13.10;99.90;;;;;;5070690;28;20248;-59
2022/09/24 00:46:39;;;;;;;5.30;1.05;;;13.00;99.90;;;;;;5071010;28;20173;-60
2022/09/24 00:49:12;;;;;;;6.27;1.00;;;13.00;99.90;;;;;;5070968;28;20173;-60
2022/09/24 00:51:40;;;;;;;5.15;1.05;;;13.00;99.90;;;;;;5057167;28;20327;-60
2022/09/24 00:54:10;;;;;;;3.60;1.10;;;13.00;99.90;;;;;;5050769;28;20183;-60
2022/09/24 00:56:38;;;;;;;4.30;1.00;;;12.90;99.90;;;;;;5055494;28;20160;-61
2022/09/24 00:59:06;;;;;;;5.63;1.10;;;12.90;99.90;;;;;;5070511;28;20172;-60
2022/09/24 01:01:32;;;;;;;4.53;1.00;;;12.90;99.90;;;;;;5070622;28;20175;-60
2022/09/24 01:04:00;;;;;;;5.93;1.10;;;12.80;99.90;;;;;;5070463;28;20168;-60
2022/09/24 01:06:26;;;;;;;6.40;1.17;;;12.80;99.90;;;;;;5070016;28;20220;-60
2022/09/24 01:08:54;;;;;;;4.63;1.00;;;12.80;99.90;;;;;;5070226;28;20180;-59
2022/09/24 01:11:29;;;;;;;3.22;1.00;;;12.80;99.90;;;;;;5070399;28;20245;-59
2022/09/24 01:14:10;;;;;;;6.63;1.40;;;12.70;99.90;;;;;;5070527;28;20650;-59
2022/09/24 01:16:41;;;;;;;4.33;1.10;;;12.70;99.90;;;;;;5070565;28;20179;-59
2022/09/24 01:19:12;;;;;;;4.97;1.23;;;12.60;99.90;;;;;;5070597;28;20172;-59
2022/09/24 01:21:51;;;;;;;5.47;1.20;;;12.60;99.90;;;;;;5070601;28;20199;-59
2022/09/24 01:24:45;;;;;;;6.03;1.00;;;12.60;99.90;;;;;;5070382;28;20527;-60
2022/09/24 01:27:18;;;;;;;5.07;1.03;;;12.50;99.90;;;;;;5070506;28;20172;-60
2022/09/24 01:29:53;;;;;;;5.43;1.03;;;12.50;99.90;;;;;;5070125;28;20203;-60
2022/09/24 01:32:36;;;;;;;4.10;1.07;;;12.50;99.90;;;;;;5069643;28;20219;-60
2022/09/24 01:35:07;;;;;;;3.70;1.00;;;12.50;99.90;;;;;;5069979;28;20180;-59
2022/09/24 01:37:35;;;;;;;6.27;1.27;;;12.40;99.90;;;;;;5070347;28;20160;-59
2022/09/24 01:40:03;;;;;;;7.50;1.13;;;12.40;99.90;;;;;;5070498;28;20164;-59
2022/09/24 01:42:30;;;;;;;7.20;1.50;;;12.40;99.90;;;;;;5052318;28;20195;-60
2022/09/24 01:44:58;;;;;;;5.43;1.20;;;12.30;99.90;;;;;;5070376;28;20168;-60
2022/09/24 01:47:38;;;;;;;4.70;1.13;;;12.30;99.90;;;;;;5069927;28;20188;-59
2022/09/24 01:50:10;;;;;;;4.10;0.97;;;12.30;99.90;;;;;;5036040;28;20168;-59
2022/09/24 01:53:07;;;;;;;2.97;1.00;;;12.30;99.90;;;;;;5069935;28;20284;-59
2022/09/24 01:55:37;;;;;;;2.47;0.90;;;12.30;99.90;;;;;;5069400;28;20272;-60
2022/09/24 01:58:13;;;;;;;12.37;2.43;;;12.30;99.90;;;;;;5069784;28;20164;-59
2022/09/24 02:00:45;;;;;;;6.17;1.33;;;12.20;99.90;;;;;;5061001;28;20172;-59
2022/09/24 02:03:16;;;;;;;3.23;1.10;;;12.20;99.90;;;;;;5049501;28;20263;-60
2022/09/24 02:06:09;;;;;;;6.50;1.00;;;12.20;99.90;;;;;;5063049;28;20164;-60
2022/09/24 02:08:41;;;;;;;6.30;1.13;;;12.20;99.90;;;;;;5069622;28;20180;-60
2022/09/24 02:11:10;;;;;;;4.63;1.20;;;12.20;99.90;;;;;;5069648;28;20177;-60
2022/09/24 02:13:41;;;;;;;5.73;1.27;;;12.20;99.90;;;;;;5069396;28;20667;-59
2022/09/24 02:16:10;;;;;;;9.47;1.20;;;12.10;99.90;;;;;;5069929;28;20176;-59
2022/09/24 02:18:39;;;;;;;6.93;1.20;;;12.00;99.90;;;;;;5069609;28;20172;-59
2022/09/24 02:21:11;;;;;;;4.97;1.10;;;12.00;99.90;;;;;;5073479;28;20176;-59
2022/09/24 02:23:43;;;;;;;8.80;1.20;;;11.90;99.90;;;;;;5073636;28;20169;-58
2022/09/24 02:26:10;;;;;;;4.77;1.13;;;11.90;99.90;;;;;;5065238;28;20192;-59
2022/09/24 02:28:35;;;;;;;5.63;1.10;;;11.80;99.90;;;;;;5053181;28;20644;-59
2022/09/24 02:31:06;;;;;;;6.00;1.23;;;11.70;99.90;;;;;;5053118;28;20172;-59
2022/09/24 02:36:18;;;;;;;6.57;1.73;;;11.70;99.90;;;;;;5073418;28;20168;-59
2022/09/24 02:38:48;;;;;;;12.23;1.70;;;11.70;99.90;;;;;;5073014;28;20168;-59
2022/09/24 02:41:14;;;;;;;11.33;2.20;;;11.70;99.90;;;;;;5073025;28;20164;-59
2022/09/24 02:43:39;;;;;;;3.90;1.80;;;11.60;99.90;;;;;;5072966;28;20255;-59
2022/09/24 02:46:08;;;;;;;6.63;2.30;;;11.70;99.90;;;;;;5073142;28;20306;-59
2022/09/24 02:48:37;;;;;;;6.40;2.60;;;11.60;99.90;;;;;;5072837;28;20257;-59
2022/09/24 02:51:04;;;;;;;6.30;2.00;;;11.60;99.90;;;;;;5072636;28;20647;-61
2022/09/24 02:53:30;;;;;;;6.23;2.03;;;11.60;99.90;;;;;;5073235;28;20224;-59
2022/09/24 02:55:59;;;;;;;5.77;1.93;;;11.70;99.90;;;;;;5073091;28;20239;-59
2022/09/24 02:58:24;;;;;;;3.83;2.03;;;11.60;99.90;;;;;;5072983;28;20177;-59
2022/09/24 03:00:50;;;;;;;4.93;1.73;;;11.60;99.90;;;;;;5072755;28;20165;-59
2022/09/24 03:03:16;;;;;;;8.63;1.90;;;11.60;99.90;;;;;;5072174;28;20255;-59
2022/09/24 03:05:41;;;;;;;7.67;1.60;;;11.60;99.90;;;;;;5072879;28;20177;-59
2022/09/24 03:08:07;;;;;;;6.70;1.87;;;11.30;99.90;;;;;;5072732;28;20180;-60
2022/09/24 03:10:33;;;;;;;7.70;1.37;;;11.60;99.90;;;;;;5072575;28;20623;-60
2022/09/24 03:12:58;;;;;;;4.63;1.57;;;11.50;99.90;;;;;;5072354;28;20222;-59
2022/09/24 03:15:24;;;;;;;5.77;1.77;;;11.50;99.90;;;;;;5072779;28;20247;-59
2022/09/24 03:17:50;;;;;;;6.70;1.50;;;11.50;99.90;;;;;;5072721;28;20180;-59
2022/09/24 03:20:16;;;;;;;3.17;1.13;;;11.60;99.90;;;;;;5071402;28;20177;-60
2022/09/24 03:22:42;;;;;;;2.87;1.03;;;11.50;99.90;;;;;;5071683;28;20669;-60
2022/09/24 03:25:08;;;;;;;5.50;1.43;;;11.50;99.90;;;;;;5066681;28;20639;-60
2022/09/24 03:27:34;;;;;;;8.57;1.60;;;11.50;99.90;;;;;;5072246;28;20176;-60
2022/09/24 03:32:44;;;;;;;6.67;1.37;;;11.50;99.90;;;;;;5072055;28;20314;-60
2022/09/24 03:35:10;;;;;;;4.03;1.50;;;11.50;99.90;;;;;;5071669;28;20666;-60
2022/09/24 03:37:36;;;;;;;5.20;1.20;;;11.40;99.90;;;;;;5072278;28;20177;-60
2022/09/24 03:40:04;;;;;;;7.60;1.80;;;11.40;99.90;;;;;;5071041;28;20168;-60
2022/09/24 03:42:32;;;;;;;5.67;1.53;;;11.30;99.90;;;;;;5071768;28;20186;-60
2022/09/24 03:44:58;;;;;;;9.10;1.60;;;11.30;99.90;;;;;;5071685;28;20204;-60
2022/09/24 03:47:24;;;;;;;6.03;1.40;;;11.30;99.90;;;;;;5072029;28;20168;-60
2022/09/24 03:49:49;;;;;;;6.13;1.43;;;11.40;99.90;;;;;;5071833;28;20173;-60
2022/09/24 03:52:15;;;;;;;3.23;1.00;;;11.30;99.90;;;;;;5071712;28;20732;-60
2022/09/24 03:54:41;;;;;;;5.90;1.50;;;11.20;99.90;;;;;;5071683;28;20252;-60
2022/09/24 03:57:07;;;;;;;4.73;1.57;;;11.20;99.90;;;;;;5072220;28;20576;-60
2022/09/24 03:59:33;;;;;;;5.60;1.87;;;11.20;99.90;;;;;;5071931;28;20718;-60
2022/09/24 04:01:58;;;;;;;4.60;1.27;;;11.20;99.90;;;;;;5071306;28;20172;-60
2022/09/24 04:04:24;;;;;;;6.83;1.80;;;11.20;99.90;;;;;;5071631;28;20179;-60
2022/09/24 04:06:51;;;;;;;6.33;1.17;;;11.20;99.90;;;;;;5071635;28;20224;-60
2022/09/24 04:09:17;;;;;;;7.27;1.57;;;11.20;99.90;;;;;;5071426;28;20267;-60
2022/09/24 04:11:43;;;;;;;6.90;1.27;;;11.20;99.90;;;;;;5053731;28;20296;-60
2022/09/24 04:14:09;;;;;;;5.93;1.30;;;11.20;99.90;;;;;;5071827;28;20478;-60
2022/09/24 04:16:35;;;;;;;3.47;1.20;;;11.20;99.90;;;;;;5071267;28;20172;-59
2022/09/24 04:19:00;;;;;;;6.87;1.27;;;11.10;99.90;;;;;;5071266;28;20168;-59
2022/09/24 04:21:26;;;;;;;6.87;1.13;;;11.10;99.90;;;;;;5060576;28;20706;-59
2022/09/24 04:23:52;;;;;;;5.70;1.30;;;11.00;99.90;;;;;;5051561;28;20181;-60
2022/09/24 04:26:18;;;;;;;3.33;1.20;;;11.10;99.90;;;;;;5051794;28;20615;-60
2022/09/24 04:28:43;;;;;;;6.13;1.43;;;11.10;99.90;;;;;;5064945;28;20665;-60
2022/09/24 04:31:09;;;;;;;4.20;1.60;;;11.00;99.90;;;;;;5071726;28;20172;-60
2022/09/24 04:33:35;;;;;;;4.20;1.50;;;11.00;99.90;;;;;;5071401;28;20208;-60
2022/09/24 04:36:00;;;;;;;2.53;1.10;;;10.90;99.90;;;;;;5070820;28;20200;-60
2022/09/24 04:38:26;;;;;;;4.43;1.20;;;10.90;99.90;;;;;;5071262;28;20238;-60
2022/09/24 04:40:52;;;;;;;3.80;1.33;;;10.80;99.90;;;;;;5071687;28;20173;-60
2022/09/24 04:43:18;;;;;;;6.77;0.93;;;;;;;;;;5070777;28;20172;-60
2022/09/24 04:45:44;;;;;;;7.07;1.57;;;10.90;99.90;;;;;;5053479;28;20712;-60
2022/09/24 04:48:10;;;;;;;5.60;1.40;;;10.90;99.90;;;;;;5071411;28;20266;-60
2022/09/24 04:50:38;;;;;;;6.07;1.47;;;10.90;99.90;;;;;;5071276;28;21271;-60
2022/09/24 04:53:04;;;;;;;6.67;1.50;;;10.80;99.90;;;;;;5070887;28;20274;-59
2022/09/24 04:55:31;;;;;;;11.23;1.50;;;10.80;99.90;;;;;;5071157;28;20169;-59
2022/09/24 04:57:57;;;;;;;3.23;1.27;;;10.80;99.90;;;;;;5071151;28;20196;-59
2022/09/24 05:00:23;;;;;;;8.23;1.90;;;10.80;99.90;;;;;;5071303;28;20231;-59
2022/09/24 05:02:58;;;;;;;4.93;1.23;;;10.80;99.90;;;;;;5070945;28;20196;-60
2022/09/24 05:05:24;;;;;;;6.80;1.50;;;10.80;99.90;;;;;;5070827;28;20263;-60
2022/09/24 05:07:50;;;;;;;7.80;1.37;;;10.80;99.90;;;;;;5070166;28;20220;-61
2022/09/24 05:10:16;;;;;;;5.37;1.20;;;10.80;99.90;;;;;;5071097;28;20290;-61
2022/09/24 05:12:41;;;;;;;6.60;1.27;;;10.80;99.90;;;;;;5070963;28;20211;-60
2022/09/24 05:15:08;;;;;;;9.93;1.40;;;10.80;99.90;;;;;;5070709;28;20632;-60
2022/09/24 05:17:37;;;;;;;8.67;1.47;;;10.80;99.90;;;;;;5052376;28;20184;-59
2022/09/24 05:20:03;;;;;;;4.87;1.40;;;10.90;99.90;;;;;;5070224;28;20173;-59
2022/09/24 05:22:30;;;;;;;11.07;1.67;;;10.90;99.90;;;;;;5070814;28;20187;-59
2022/09/24 05:24:55;;;;;;;6.07;1.20;;;11.00;99.90;;;;;;5070596;28;20180;-60
2022/09/24 05:27:22;;;;;;;7.13;1.53;;;10.90;99.90;;;;;;5059672;28;20231;-59
2022/09/24 05:29:47;;;;;;;9.20;1.50;;;10.90;99.90;;;;;;5066999;28;20188;-58
2022/09/24 05:32:16;;;;;;;8.47;1.60;;;10.90;99.90;;;;;;5070326;28;20200;-58
2022/09/24 05:34:43;;;;;;;4.27;1.10;;;10.90;99.90;;;;;;5070507;28;20210;-58
2022/09/24 05:37:10;;;;;;;9.10;1.30;;;10.90;99.90;;;;;;5070429;28;20230;-59
2022/09/24 05:39:36;;;;;;;7.13;1.70;;;11.00;99.90;;;;;;5070902;28;20218;-59
2022/09/24 05:42:06;;;;;;;6.43;1.43;;;11.00;99.90;;;;;;5070486;28;20550;-58
2022/09/24 05:44:32;;;;;;;4.63;1.10;;;11.10;99.90;;;;;;5070750;28;20255;-59
2022/09/24 05:46:58;;;;;;;11.97;1.30;;;11.20;99.90;;;;;;5070225;28;20579;-59
2022/09/24 05:49:24;;;;;;;10.03;1.47;;;11.20;99.90;;;;;;5070410;28;20184;-59
2022/09/24 05:51:50;;;;;;;6.57;1.00;;;11.20;99.90;;;;;;5070432;28;20215;-59
2022/09/24 05:54:16;;;;;;;11.30;1.33;;;11.30;99.90;;;;;;5072986;28;20306;-59
2022/09/24 05:56:42;;;;;;;9.40;1.70;;;11.30;99.90;;;;;;5074217;28;20168;-59
2022/09/24 05:59:08;;;;;;;9.53;1.50;;;11.30;99.90;;;;;;5074604;28;20529;-59
2022/09/24 06:01:33;;;;;;;7.03;1.27;;;11.30;99.90;;;;;;5074378;28;20171;-59
2022/09/24 06:03:59;;;;;;;6.57;1.40;;;11.40;99.90;;;;;;5073155;28;20183;-59
2022/09/24 06:06:26;;;;;;;8.10;1.37;;;11.40;99.90;;;;;;5074326;28;20299;-59
2022/09/24 06:08:52;;;;;;;5.17;1.10;;;11.40;99.90;;;;;;5074036;28;20180;-59
2022/09/24 06:11:21;;;;;;;7.43;1.60;;;11.40;99.90;;;;;;5074156;28;20165;-59
2022/09/24 06:13:47;;;;;;;7.47;1.37;;;11.50;99.90;;;;;;5073870;28;20819;-59
2022/09/24 06:16:13;;;;;;;8.60;1.27;;;11.40;99.90;;;;;;5055659;28;20180;-59
2022/09/24 06:18:41;;;;;;;6.37;1.37;;;11.50;99.90;;;;;;5073434;28;20550;-59
2022/09/24 06:21:10;;;;;;;7.40;1.23;;;11.50;99.90;;;;;;5073467;28;20204;-59
2022/09/24 06:23:37;;;;;;;7.60;1.50;;;11.60;99.90;;;;;;5073488;28;20173;-59
2022/09/24 06:26:04;;;;;;;7.03;1.30;;;11.60;99.90;;;;;;5073634;28;20212;-59
2022/09/24 06:28:30;;;;;;;10.93;1.70;;;11.70;99.90;;;;;;5073223;28;20225;-59
2022/09/24 06:30:59;;;;;;;4.60;1.10;;;11.80;99.90;;;;;;5073588;28;20184;-59
2022/09/24 06:33:24;;;;;;;12.63;1.50;;;11.80;99.90;;;;;;5073455;28;20307;-59
2022/09/24 06:35:50;;;;;;;7.73;1.50;;;11.90;99.90;;;;;;5073874;28;20215;-59
2022/09/24 06:38:17;;;;;;;6.93;1.53;;;12.00;99.90;;;;;;5073810;28;20260;-59
2022/09/24 06:40:44;;;;;;;5.63;1.40;;;12.00;99.90;;;;;;5073610;28;20204;-59
2022/09/24 06:43:10;;;;;;;6.00;1.30;;;12.00;99.90;;;;;;5073553;28;20251;-59
2022/09/24 06:45:36;;;;;;;12.90;1.37;;;12.10;99.90;;;;;;5072974;28;20206;-59
2022/09/24 06:48:04;;;;;;;8.00;1.20;;;12.20;99.90;;;;;;5073928;28;20200;-59
2022/09/24 06:50:31;;;;;;;4.07;1.20;;;12.30;99.90;;;;;;5072676;28;20173;-59
2022/09/24 06:52:57;;;;;;;6.87;1.00;;;13.60;99.90;;;;;;5072582;28;20208;-59
2022/09/24 06:55:23;;;;;;;8.77;1.13;;;12.50;99.90;;;;;;5072701;28;20536;-60
2022/09/24 06:57:48;;;;;;;5.20;1.17;;;12.60;99.90;;;;;;5072435;28;20237;-59
2022/09/24 07:00:15;;;;;;;17.30;1.73;;;12.70;99.90;;;;;;5072283;28;20551;-59
2022/09/24 07:02:41;;;;;;;9.10;1.67;;;12.80;99.90;;;;;;5073080;28;20200;-60
2022/09/24 07:05:08;;;;;;;7.83;1.43;;;13.00;99.90;;;;;;5072656;28;20164;-59
2022/09/24 07:07:34;;;;;;;8.23;1.45;;;13.00;99.90;;;;;;5070123;28;20221;-60
2022/09/24 07:10:03;;;;;;;10.32;1.88;;;13.20;99.90;;;;;;5073202;28;20700;-60
2022/09/24 07:12:30;;;;;;;8.95;1.20;;;13.30;99.90;;;;;;5073001;28;20291;-60
2022/09/24 07:14:56;;;;;;;9.93;1.40;;;13.40;99.90;;;;;;5073267;28;20198;-58
2022/09/24 07:17:26;;;;;;;5.47;1.55;;;13.60;99.90;;;;;;5071985;28;20703;-58
2022/09/24 07:19:52;;;;;;;5.43;1.40;;;13.70;99.90;;;;;;5072785;28;20650;-58
2022/09/24 07:22:18;;;;;;;11.35;1.60;;;13.80;99.90;;;;;;5072992;28;20211;-59
2022/09/24 07:24:44;;;;;;;11.07;1.60;;;13.80;99.90;;;;;;5054218;28;20574;-58
2022/09/24 07:27:11;;;;;;;6.18;1.20;;;13.90;99.90;;;;;;5072617;28;20192;-59
2022/09/24 07:29:37;;;;;;;9.77;1.63;;;14.10;99.90;;;;;;5072742;28;20172;-58
2022/09/24 07:32:03;;;;;;;7.95;1.40;;;14.10;99.90;;;;;;5072214;28;20215;-58
2022/09/24 07:34:29;;;;;;;16.33;1.20;;;14.20;99.90;;;;;;5067026;28;20180;-59
2022/09/24 07:36:55;;;;;;;7.43;1.25;;;14.20;99.90;;;;;;5055643;28;20265;-58
2022/09/24 07:39:23;;;;;;;8.10;1.25;;;14.20;99.90;;;;;;5052602;28;20173;-58
2022/09/24 07:41:51;;;;;;;6.75;1.38;;;14.30;99.90;;;;;;5058011;28;20261;-57
2022/09/24 07:44:19;;;;;;;5.43;1.30;;;14.40;99.90;;;;;;5072715;28;20160;-57
2022/09/24 07:46:51;;;;;;;11.30;1.58;;;14.50;99.90;;;;;;5072033;28;20173;-58
2022/09/24 07:49:17;;;;;;;6.43;1.08;;;14.70;99.90;;;;;;5069154;28;20184;-57
2022/09/24 07:51:43;;;;;;;8.52;1.10;;;14.70;99.90;;;;;;5072269;28;20590;-58
2022/09/24 07:54:09;;;;;;;6.53;1.60;;;14.80;99.90;;;;;;5072295;28;20906;-58
2022/09/24 07:56:35;;;;;;;7.68;1.25;;;14.80;99.90;;;;;;5071180;28;20268;-57
2022/09/24 07:59:01;;;;;;;7.72;1.38;;;14.90;99.90;;;;;;5054313;28;20191;-59
2022/09/24 08:01:27;;;;;;;9.75;1.30;;;14.90;99.90;;;;;;5071415;28;20543;-59
2022/09/24 08:03:52;;;;;;;5.93;1.38;;;14.90;99.90;;;;;;5070417;28;20176;-57
2022/09/24 08:06:24;;;;;;;6.45;1.17;;;14.90;99.90;;;;;;5071060;28;20216;-57
2022/09/24 08:08:51;;;;;;;9.60;1.10;;;15.00;99.90;;;;;;5048905;28;20190;-58
2022/09/24 08:11:17;;;;;;;6.70;1.00;;;15.00;99.90;;;;;;5053297;28;20177;-58
2022/09/24 08:13:44;;;;;;;7.38;1.40;;;15.30;99.90;;;;;;5071310;28;20207;-58
2022/09/24 08:16:09;;;;;;;8.07;1.30;;;15.20;99.90;;;;;;5067433;28;20173;-58
2022/09/24 08:18:35;;;;;;;6.32;1.30;;;15.30;99.90;;;;;;5070926;28;20214;-58
2022/09/24 08:21:05;;;;;;;5.90;1.27;;;15.30;99.90;;;;;;5071611;28;20180;-58
2022/09/24 08:23:32;;;;;;;5.82;1.10;;;15.30;99.90;;;;;;5071639;28;20771;-58
2022/09/24 08:25:58;;;;;;;8.50;1.38;;;15.40;99.90;;;;;;5068681;28;20180;-57
2022/09/24 08:28:24;;;;;;;4.93;1.20;;;15.40;99.90;;;;;;5051760;28;20169;-57
2022/09/24 08:30:50;;;;;;;8.55;1.58;;;15.40;99.90;;;;;;5062072;28;20667;-57
2022/09/24 08:33:15;;;;;;;6.43;1.38;;;15.50;99.90;;;;;;5071392;28;20219;-57
2022/09/24 08:35:41;;;;;;;8.13;1.08;;;15.40;99.90;;;;;;5071500;28;20172;-56
2022/09/24 08:38:15;;;;;;;7.15;1.38;;;15.40;99.90;;;;;;5108256;27;21127;-56
2022/09/24 08:40:55;;;;;;;9.75;1.60;;;15.10;99.90;;;;;;5109826;28;20183;-56
2022/09/24 08:43:43;;;;;;;5.97;1.20;;;15.30;99.90;;;;;;5108886;28;20522;-56
2022/09/24 08:49:20;;;;;;;6.03;1.00;;;15.50;99.90;;;;;;5050245;28;20192;-55
2022/09/24 08:52:25;;;;;;;12.35;1.13;;;15.50;99.90;;;;;;5110997;28;20174;-57
2022/09/24 08:54:53;;;;;;;8.80;1.20;;;15.70;99.90;;;;;;5122628;28;20182;-57
2022/09/24 08:57:20;;;;;;;4.85;1.33;;;15.80;99.90;;;;;;5108022;28;20226;-56
2022/09/24 08:59:50;;;;;;;7.57;1.35;;;15.70;99.90;;;;;;5109552;28;20178;-57
2022/09/24 09:02:41;;;;;;;6.03;1.23;;;15.70;99.90;;;;;;5108072;28;20193;-57
2022/09/24 09:05:35;;;;;;;6.75;1.30;;;15.70;99.90;;;;;;5119313;28;20201;-58
2022/09/24 09:08:07;;;;;;;4.28;1.05;;;15.90;99.90;;;;;;5111012;28;20187;-58
2022/09/24 09:10:37;;;;;;;7.68;1.50;;;15.90;99.90;;;;;;5107965;28;20167;-57
2022/09/24 09:13:10;;;;;;;5.22;1.02;;;16.00;99.90;;;;;;5107874;28;20183;-59
2022/09/24 09:15:42;;;;;;;6.47;1.35;;;16.30;99.90;;;;;;5107519;28;20156;-58
2022/09/24 09:18:25;;;;;;;5.30;1.55;;;16.30;99.90;;;;;;5107571;28;20203;-58
2022/09/24 09:20:51;;;;;;;3.58;1.13;;;16.40;99.90;;;;;;5107552;28;20171;-57
2022/09/24 09:23:40;;;;;;;8.02;1.20;;;16.60;99.90;;;;;;5107704;28;20175;-57
2022/09/24 09:26:10;;;;;;;11.00;1.67;;;16.90;99.90;;;;;;5107759;28;20163;-57
2022/09/24 09:28:36;;;;;;;7.10;1.40;;;17.00;99.90;;;;;;5107755;28;20252;-56
2022/09/24 09:31:33;;;;;;;7.75;1.38;;;17.10;99.90;;;;;;5107589;28;20224;-57
2022/09/24 09:34:16;;;;;;;4.65;1.05;;;17.20;99.90;;;;;;5114285;28;20171;-57
2022/09/24 09:37:10;;;;;;;10.43;1.40;;;17.40;99.90;;;;;;5120100;28;20230;-57
2022/09/24 09:40:11;;;;;;;5.45;1.10;;;17.50;99.90;;;;;;5097551;28;20252;-57
2022/09/24 09:42:39;;;;;;;8.10;1.25;;;17.70;99.90;;;;;;5113936;28;20580;-58
2022/09/24 09:45:19;;;;;;;7.05;1.02;;;17.90;99.90;;;;;;5107092;28;20195;-58
2022/09/24 09:47:56;;;;;;;5.32;1.38;;;18.00;99.90;;;;;;5105929;28;20175;-58
2022/09/24 09:50:31;;;;;;;9.82;1.40;;;18.20;99.90;;;;;;5107921;28;20255;-57
2022/09/24 09:52:57;;;;;;;6.10;1.23;;;18.20;99.90;;;;;;5093745;28;20258;-54
2022/09/24 09:55:26;;;;;;;6.72;1.45;;;18.30;99.90;;;;;;5107776;28;20724;-54
2022/09/24 09:57:52;;;;;;;9.35;1.10;;;18.60;99.90;;;;;;5113956;28;20221;-53
2022/09/24 10:00:31;;;;;;;6.88;1.60;;;19.30;99.90;;;;;;5112278;28;20175;-53
2022/09/24 10:02:57;;;;;;;6.80;1.30;;;19.50;99.90;;;;;;5113608;28;20263;-58
2022/09/24 10:05:27;;;;;;;6.80;1.52;;;19.70;99.90;;;;;;5112372;28;20206;-58
2022/09/24 10:07:54;;;;;;;11.98;1.80;;;19.80;99.90;;;;;;5113667;28;20167;-58
2022/09/24 10:10:23;;;;;;;8.55;1.30;;;20.00;99.90;;;;;;5113526;28;20167;-59
2022/09/24 10:12:52;;;;;;;9.18;1.23;;;20.80;99.90;;;;;;5113781;28;20226;-57
2022/09/24 10:15:20;;;;;;;7.43;1.27;;;21.70;99.90;;;;;;5113407;28;20250;-58
2022/09/24 10:17:49;;;;;;;11.75;1.58;;;22.70;99.90;;;;;;5113048;28;20267;-58
2022/09/24 10:20:30;;;;;;;6.93;1.88;;;23.40;99.90;;;;;;5113233;28;20581;-59
2022/09/24 10:22:58;;;;;;;4.45;1.10;;;24.50;99.90;;;;;;5113347;28;20185;-59
2022/09/24 10:25:29;;;;;;;10.30;1.50;;;24.40;99.90;;;;;;5113114;28;20164;-59
2022/09/24 10:30:32;;;;;;;5.07;1.15;;;25.80;99.90;;;;;;5111361;28;20190;-59
2022/09/24 10:31:00;;;;;;;5.95;1.70;;;26.20;99.90;;;;;;5111154;28;20172;-59
2022/09/24 10:33:34;;;;;;;8.00;1.55;;;26.00;99.90;;;;;;5111398;28;20163;-59
2022/09/24 10:36:20;;;;;;;5.13;1.33;;;26.80;99.90;;;;;;5111039;28;20271;-59
2022/09/24 10:38:46;;;;;;;4.82;1.50;;;26.30;99.90;;;;;;5111070;28;20220;-60
2022/09/24 10:41:25;;;;;;;3.42;1.02;;;24.90;99.90;;;;;;5111341;28;20172;-59
2022/09/24 10:43:52;;;;;;;7.03;1.48;;;23.90;99.90;;;;;;5111587;28;20171;-59
2022/09/24 10:46:35;;;;;;;6.22;1.30;;;23.10;99.90;;;;;;5113009;28;20167;-59
2022/09/24 10:49:28;;;;;;;3.60;0.90;;;23.50;99.90;;;;;;5113075;28;20171;-59
2022/09/24 10:52:19;;;;;;;4.93;1.23;;;24.70;99.90;;;;;;5113123;28;20171;-59
2022/09/24 10:55:24;;;;;;;5.45;1.13;;;24.60;99.90;;;;;;5112927;28;20179;-59
2022/09/24 10:57:59;;;;;;;3.47;1.08;;;24.60;99.90;;;;;;5112804;28;20346;-59
2022/09/24 11:00:42;;;;;;;4.43;1.10;;;24.10;99.90;;;;;;5111926;28;20169;-59
2022/09/24 11:03:17;;;;;;;3.55;1.30;;;23.20;99.90;;;;;;5112751;28;20644;-59
2022/09/24 11:05:54;;;;;;;5.40;1.15;;;22.70;99.90;;;;;;5112637;28;20284;-60
2022/09/24 11:08:27;;;;;;;5.28;1.20;;;23.40;99.90;;;;;;5112778;28;20198;-59
2022/09/24 11:11:12;;;;;;;6.43;1.10;;;23.90;99.90;;;;;;5112624;28;20707;-59
2022/09/24 11:13:46;;;;;;;6.03;1.05;;;24.40;99.90;;;;;;5112596;28;20179;-59
2022/09/24 11:16:30;;;;;;;4.40;1.30;;;25.60;99.90;;;;;;5112339;28;20202;-59
2022/09/24 11:19:09;;;;;;;7.50;1.30;;;26.80;99.90;;;;;;5111097;28;20627;-59
2022/09/24 11:21:45;;;;;;;3.95;1.02;;;26.90;99.90;;;;;;5112540;28;20163;-59
2022/09/24 11:24:36;;;;;;;3.28;1.30;;;26.80;99.90;;;;;;5112264;28;20554;-59
2022/09/24 11:27:35;;;;;;;4.32;1.10;;;26.50;99.90;;;;;;5112394;28;20175;-59
2022/09/24 11:30:09;;;;;;;4.88;1.30;;;27.30;99.90;;;;;;5090381;28;20221;-59
2022/09/24 11:33:03;;;;;;;4.97;1.00;;;28.20;99.90;;;;;;5112142;28;20170;-59
2022/09/24 11:35:34;;;;;;;5.50;1.20;;;27.30;99.90;;;;;;5112068;28;20163;-59
2022/09/24 11:38:06;;;;;;;2.92;0.93;;;27.90;99.90;;;;;;5112014;28;20313;-59
2022/09/24 11:40:37;;;;;;;7.55;0.90;;;28.40;99.90;;;;;;5111974;28;20174;-59
2022/09/24 11:43:32;;;;;;;2.95;0.93;;;28.20;99.90;;;;;;5108559;28;20197;-59
2022/09/24 11:46:10;;;;;;;8.45;1.40;;;27.80;99.90;;;;;;5082231;28;20168;-59
2022/09/24 11:48:57;;;;;;;2.63;1.08;;;27.10;99.90;;;;;;5071637;28;20622;-59
2022/09/24 11:51:51;;;;;;;3.40;0.93;;;26.50;99.90;;;;;;5071300;28;20218;-59
2022/09/24 11:54:32;;;;;;;2.35;1.00;;;26.40;99.90;;;;;;5071305;28;20203;-58
2022/09/24 11:57:04;;;;;;;3.53;1.35;;;26.40;99.90;;;;;;5070970;28;20204;-59
2022/09/24 11:59:54;;;;;;;2.53;0.90;;;25.80;99.90;;;;;;5071003;28;20267;-59
2022/09/24 12:02:33;;;;;;;5.03;1.20;;;26.90;99.90;;;;;;5071107;28;20635;-59
2022/09/24 12:05:11;;;;;;;3.20;1.27;;;27.60;99.90;;;;;;5071283;28;20180;-59
2022/09/24 12:08:10;;;;;;;2.90;0.90;;;27.20;99.90;;;;;;5071046;28;20165;-59
2022/09/24 12:11:12;;;;;;;4.78;1.00;;;27.80;99.90;;;;;;5070860;28;20596;-59
2022/09/24 12:13:55;;;;;;;3.92;1.08;;;27.90;99.90;;;;;;5057828;28;20206;-59
2022/09/24 12:16:29;;;;;;;6.18;1.08;;;28.60;99.90;;;;;;5070607;28;20219;-60
2022/09/24 12:19:22;;;;;;;3.45;1.02;;;28.50;99.90;;;;;;5070828;28;20210;-59
2022/09/24 12:21:51;;;;;;;2.97;1.00;;;29.40;99.90;;;;;;5071019;28;20186;-59
2022/09/24 12:24:45;;;;;;;3.35;1.00;;;29.60;99.90;;;;;;5070991;28;20192;-59
2022/09/24 12:27:15;;;;;;;6.30;1.20;;;29.60;99.90;;;;;;5070752;28;20179;-59
2022/09/24 12:32:56;;;;;;;3.72;0.95;;;28.70;99.90;;;;;;5071063;28;20249;-59
2022/09/24 12:35:27;;;;;;;4.45;1.30;;;29.60;99.90;;;;;;5069428;28;20172;-59
2022/09/24 12:38:03;;;;;;;2.47;0.82;;;30.70;99.90;;;;;;5070449;28;20219;-59
2022/09/24 12:41:06;;;;;;;3.35;1.13;;;30.90;99.90;;;;;;5070775;28;20168;-59
2022/09/24 12:43:32;;;;;;;2.85;1.08;;;31.10;99.90;;;;;;5069274;28;20507;-59
2022/09/24 12:46:03;;;;;;;2.55;0.95;;;30.10;99.90;;;;;;5070540;28;20197;-59
2022/09/24 12:48:34;;;;;;;2.80;0.80;;;30.60;99.90;;;;;;5070651;28;20164;-57
2022/09/24 12:51:03;;;;;;;2.72;0.98;;;30.70;99.90;;;;;;5070494;28;20235;-59
2022/09/24 12:53:34;;;;;;;4.13;1.08;;;29.80;99.90;;;;;;5070483;28;20160;-59
2022/09/24 12:56:01;;;;;;;6.00;1.25;;;30.50;99.90;;;;;;5070469;28;20175;-59
2022/09/24 12:58:44;;;;;;;4.25;0.82;;;29.70;99.90;;;;;;5070454;28;20163;-59
2022/09/24 13:01:26;;;;;;;3.28;0.98;;;30.30;99.90;;;;;;5070639;28;20176;-59
2022/09/24 13:04:25;;;;;;;2.78;0.82;;;28.10;99.90;;;;;;5070337;28;20188;-59
2022/09/24 13:06:52;;;;;;;2.05;0.80;;;28.70;99.90;;;;;;5047752;28;20278;-59
2022/09/24 13:09:34;;;;;;;2.17;0.93;;;28.70;99.90;;;;;;5070306;28;20180;-59
2022/09/24 13:12:16;;;;;;;2.72;1.00;;;27.00;99.90;;;;;;5070428;28;20164;-58
2022/09/24 13:14:55;;;;;;;2.22;1.00;;;27.90;99.90;;;;;;5070491;28;20176;-59
2022/09/24 13:17:22;;;;;;;2.33;1.00;;;28.00;99.90;;;;;;5070121;28;20209;-59
2022/09/24 13:19:55;;;;;;;3.70;0.95;;;28.10;99.90;;;;;;5070295;28;20275;-59
2022/09/24 13:22:33;;;;;;;3.63;0.90;;;28.60;99.90;;;;;;5070158;28;20229;-59